Time;durP1;ratioP1;P1;durP2;ratioP2;P2;SDS_P1;SDS_P2;PMS_P1;PMS_P2;Temp;Humidity;BMP_temperature;BMP_pressure;BME280_temperature;BME280_humidity;BME280_pressure;Samples;Min_cycle;Max_cycle;Signal;HPM_P1;HPM_P2
2021/09/20 00:00:40;;;;;;;2.28;0.20;;;;;;;;;;5092825;28;20383;-41
2021/09/20 00:03:05;;;;;;;0.20;0.20;;;;;;;;;;5092834;28;20069;-41
2021/09/20 00:05:30;;;;;;;0.68;0.10;;;;;;;;;;5092520;28;20012;-41
2021/09/20 00:07:56;;;;;;;0.47;0.17;;;;;;;;;;5092692;28;20067;-42
2021/09/20 00:10:21;;;;;;;0.40;0.30;;;;;;;;;;5092381;28;20471;-42
2021/09/20 00:12:46;;;;;;;0.65;0.10;;;;;;;;;;5092405;28;20376;-41
2021/09/20 00:15:12;;;;;;;0.10;0.10;;;;;;;;;;5092339;28;20013;-41
2021/09/20 00:17:38;;;;;;;2.17;0.10;;;;;;;;;;5092347;28;20089;-41
2021/09/20 00:20:05;;;;;;;0.10;0.10;;;;;;;;;;5094596;28;20448;-42
2021/09/20 00:22:30;;;;;;;0.10;0.10;;;;;;;;;;5096675;28;20034;-42
2021/09/20 00:24:55;;;;;;;0.40;0.25;;;;;;;;;;5096640;28;20099;-42
2021/09/20 00:27:21;;;;;;;1.65;0.20;;;;;;;;;;5096201;28;20119;-41
2021/09/20 00:29:46;;;;;;;0.10;0.10;;;;;;;;;;5095090;28;20012;-41
2021/09/20 00:32:12;;;;;;;0.28;0.28;;;;;;;;;;5094931;28;20077;-41
2021/09/20 00:34:38;;;;;;;0.10;0.00;;;;;;;;;;5096154;28;20023;-41
2021/09/20 00:37:03;;;;;;;0.17;0.10;;;;;;;;;;5096211;28;20055;-42
2021/09/20 00:39:29;;;;;;;0.25;0.13;;;;;;;;;;5096119;28;20031;-41
2021/09/20 00:41:54;;;;;;;0.20;0.13;;;;;;;;;;5096057;28;20488;-41
2021/09/20 00:44:20;;;;;;;2.10;0.28;;;;;;;;;;5095769;28;20525;-42
2021/09/20 00:46:45;;;;;;;0.10;0.10;;;;;;;;;;5096019;28;20044;-42
2021/09/20 00:49:11;;;;;;;1.98;0.20;;;;;;;;;;5095815;28;20028;-41
2021/09/20 00:51:36;;;;;;;0.00;0.00;;;;;;;;;;5095972;28;20390;-41
2021/09/20 00:54:02;;;;;;;0.40;0.10;;;;;;;;;;5096071;28;20012;-43
2021/09/20 00:56:28;;;;;;;0.08;0.08;;;;;;;;;;5095626;28;20413;-41
2021/09/20 00:58:54;;;;;;;0.22;0.10;;;;;;;;;;5096151;28;20020;-41
2021/09/20 01:01:20;;;;;;;0.13;0.10;;;;;;;;;;5095860;28;20046;-42
2021/09/20 01:03:45;;;;;;;0.10;0.10;;;;;;;;;;5095665;28;20462;-42
2021/09/20 01:06:11;;;;;;;0.32;0.10;;;;;;;;;;5094128;28;20036;-41
2021/09/20 01:08:36;;;;;;;3.92;0.30;;;;;;;;;;5095514;28;20016;-42
2021/09/20 01:11:02;;;;;;;0.13;0.10;;;;;;;;;;5095800;28;20032;-42
2021/09/20 01:13:27;;;;;;;0.28;0.10;;;;;;;;;;5095522;28;20036;-41
2021/09/20 01:15:53;;;;;;;0.20;0.20;;;;;;;;;;5094028;28;20028;-41
2021/09/20 01:18:19;;;;;;;0.20;0.10;;;;;;;;;;5095564;28;20016;-42
2021/09/20 01:20:44;;;;;;;0.10;0.10;;;;;;;;;;5095640;28;20020;-42
2021/09/20 01:23:10;;;;;;;0.10;0.10;;;;;;;;;;5095141;28;20028;-42
2021/09/20 01:25:35;;;;;;;1.42;0.40;;;;;;;;;;5095585;28;20032;-42
2021/09/20 01:28:01;;;;;;;0.43;0.13;;;;;;;;;;5095139;28;20039;-42
2021/09/20 01:30:26;;;;;;;0.52;0.30;;;;;;;;;;5094151;28;20020;-41
2021/09/20 01:32:52;;;;;;;0.15;0.15;;;;;;;;;;5095157;28;20027;-42
2021/09/20 01:35:18;;;;;;;0.35;0.15;;;;;;;;;;5095212;28;20221;-42
2021/09/20 01:37:44;;;;;;;0.30;0.13;;;;;;;;;;5095300;28;20416;-42
2021/09/20 01:40:10;;;;;;;0.22;0.20;;;;;;;;;;5094882;28;20020;-42
2021/09/20 01:42:35;;;;;;;0.20;0.10;;;;;;;;;;5095247;28;20024;-42
2021/09/20 01:45:01;;;;;;;0.57;0.10;;;;;;;;;;5094808;28;20130;-42
2021/09/20 01:47:26;;;;;;;0.68;0.20;;;;;;;;;;5094739;28;20040;-42
2021/09/20 01:49:51;;;;;;;1.20;0.30;;;;;;;;;;5095070;28;20039;-42
2021/09/20 01:52:17;;;;;;;1.30;0.40;;;;;;;;;;5094816;28;20024;-42
2021/09/20 01:54:42;;;;;;;0.20;0.10;;;;;;;;;;5094639;28;20049;-41
2021/09/20 01:57:08;;;;;;;1.20;0.20;;;;;;;;;;5094693;28;20016;-42
2021/09/20 01:59:33;;;;;;;0.80;0.20;;;;;;;;;;5094762;28;20121;-42
2021/09/20 02:01:59;;;;;;;0.30;0.30;;;;;;;;;;5094591;28;20023;-42
2021/09/20 02:04:24;;;;;;;0.10;0.10;;;;;;;;;;5094405;28;20051;-41
2021/09/20 02:06:50;;;;;;;1.50;1.08;;;;;;;;;;5094338;28;20024;-41
2021/09/20 02:09:16;;;;;;;3.30;0.30;;;;;;;;;;5094654;28;20031;-42
2021/09/20 02:11:41;;;;;;;0.80;0.20;;;;;;;;;;5094591;28;20370;-41
2021/09/20 02:14:07;;;;;;;0.25;0.25;;;;;;;;;;5094228;28;20032;-41
2021/09/20 02:16:32;;;;;;;0.10;0.10;;;;;;;;;;5094252;28;20021;-42
2021/09/20 02:18:57;;;;;;;0.65;0.38;;;;;;;;;;5093065;28;20032;-42
2021/09/20 02:21:23;;;;;;;3.20;0.20;;;;;;;;;;5094335;28;20405;-42
2021/09/20 02:23:48;;;;;;;0.57;0.30;;;;;;;;;;5094089;28;20047;-42
2021/09/20 02:26:14;;;;;;;0.43;0.20;;;;;;;;;;5093860;28;20036;-42
2021/09/20 02:28:39;;;;;;;0.35;0.20;;;;;;;;;;5094293;28;20032;-42
2021/09/20 02:31:05;;;;;;;2.55;0.30;;;;;;;;;;5094190;28;20154;-42
2021/09/20 02:33:31;;;;;;;2.70;0.60;;;;;;;;;;5094138;28;20177;-42
2021/09/20 02:35:57;;;;;;;0.47;0.30;;;;;;;;;;5093828;28;20479;-43
2021/09/20 02:38:22;;;;;;;0.28;0.17;;;;;;;;;;5094155;28;20028;-42
2021/09/20 02:40:47;;;;;;;0.95;0.32;;;;;;;;;;5092605;28;20032;-41
2021/09/20 02:43:13;;;;;;;0.80;0.30;;;;;;;;;;5093487;28;20058;-41
2021/09/20 02:45:38;;;;;;;0.80;0.38;;;;;;;;;;5093536;28;20043;-42
2021/09/20 02:48:04;;;;;;;0.10;0.08;;;;;;;;;;5093665;28;20032;-41
2021/09/20 02:50:29;;;;;;;0.20;0.20;;;;;;;;;;5093552;28;20423;-42
2021/09/20 02:52:55;;;;;;;0.35;0.30;;;;;;;;;;5093615;28;20024;-42
2021/09/20 02:55:20;;;;;;;0.28;0.22;;;;;;;;;;5093597;28;20016;-42
2021/09/20 02:57:45;;;;;;;1.65;0.32;;;;;;;;;;5093562;28;20421;-41
2021/09/20 03:00:11;;;;;;;0.45;0.10;;;;;;;;;;5093470;28;20042;-42
2021/09/20 03:02:37;;;;;;;0.40;0.17;;;;;;;;;;5093320;28;20039;-42
2021/09/20 03:05:03;;;;;;;0.35;0.20;;;;;;;;;;5093326;28;20021;-41
2021/09/20 03:07:29;;;;;;;0.43;0.20;;;;;;;;;;5093144;28;20051;-41
2021/09/20 03:09:54;;;;;;;3.95;0.30;;;;;;;;;;5093496;28;20016;-41
2021/09/20 03:12:19;;;;;;;0.38;0.35;;;;;;;;;;5093146;28;20107;-42
2021/09/20 03:14:45;;;;;;;0.45;0.22;;;;;;;;;;5093410;28;20023;-41
2021/09/20 03:17:10;;;;;;;0.10;0.10;;;;;;;;;;5092945;28;20035;-41
2021/09/20 03:19:35;;;;;;;0.52;0.32;;;;;;;;;;5093153;28;20093;-42
2021/09/20 03:22:01;;;;;;;0.43;0.20;;;;;;;;;;5093307;28;20071;-41
2021/09/20 03:24:26;;;;;;;3.28;0.40;;;;;;;;;;5093115;28;20016;-42
2021/09/20 03:26:52;;;;;;;1.48;0.30;;;;;;;;;;5092840;28;20399;-44
2021/09/20 03:29:18;;;;;;;0.98;0.40;;;;;;;;;;5092903;28;20027;-41
2021/09/20 03:31:43;;;;;;;1.95;0.40;;;;;;;;;;5092832;28;20111;-42
2021/09/20 03:34:09;;;;;;;0.38;0.32;;;;;;;;;;5092789;28;20051;-41
2021/09/20 03:36:34;;;;;;;0.30;0.30;;;;;;;;;;5092879;28;20028;-41
2021/09/20 03:39:00;;;;;;;0.73;0.22;;;;;;;;;;5092994;28;20024;-41
2021/09/20 03:41:26;;;;;;;0.30;0.30;;;;;;;;;;5092671;28;20493;-41
2021/09/20 03:43:51;;;;;;;1.00;0.40;;;;;;;;;;5093055;28;20020;-43
2021/09/20 03:46:16;;;;;;;1.85;0.30;;;;;;;;;;5092359;28;20506;-42
2021/09/20 03:48:42;;;;;;;0.40;0.22;;;;;;;;;;5092781;28;20024;-42
2021/09/20 03:51:08;;;;;;;1.15;0.40;;;;;;;;;;5092973;28;20056;-41
2021/09/20 03:53:34;;;;;;;0.70;0.30;;;;;;;;;;5092029;28;20378;-41
2021/09/20 03:55:59;;;;;;;0.22;0.15;;;;;;;;;;5092901;28;20474;-41
2021/09/20 03:58:24;;;;;;;0.57;0.40;;;;;;;;;;5092511;28;20099;-41
2021/09/20 04:00:50;;;;;;;0.75;0.38;;;;;;;;;;5092493;28;20028;-41
2021/09/20 04:03:15;;;;;;;0.22;0.22;;;;;;;;;;5091132;28;20048;-41
2021/09/20 04:05:41;;;;;;;1.77;0.50;;;;;;;;;;5092358;28;20025;-41
2021/09/20 04:08:08;;;;;;;1.45;0.40;;;;;;;;;;5091131;28;20040;-41
2021/09/20 04:10:33;;;;;;;0.20;0.20;;;;;;;;;;5092373;28;20078;-41
2021/09/20 04:12:59;;;;;;;0.20;0.20;;;;;;;;;;5092449;28;20051;-41
2021/09/20 04:15:24;;;;;;;0.30;0.30;;;;;;;;;;5092304;28;20054;-41
2021/09/20 04:17:49;;;;;;;0.20;0.20;;;;;;;;;;5092386;28;20343;-41
2021/09/20 04:20:15;;;;;;;0.20;0.17;;;;;;;;;;5092580;28;20024;-41
2021/09/20 04:22:41;;;;;;;0.50;0.20;;;;;;;;;;5092587;28;20016;-41
2021/09/20 04:25:07;;;;;;;0.55;0.22;;;;;;;;;;5092581;28;20133;-43
2021/09/20 04:27:32;;;;;;;0.10;0.10;;;;;;;;;;5092135;28;20402;-42
2021/09/20 04:29:58;;;;;;;0.32;0.30;;;;;;;;;;5092497;28;20036;-42
2021/09/20 04:32:24;;;;;;;0.13;0.13;;;;;;;;;;5092494;28;20016;-42
2021/09/20 04:34:49;;;;;;;0.32;0.17;;;;;;;;;;5092392;28;20031;-41
2021/09/20 04:37:16;;;;;;;0.63;0.30;;;;;;;;;;5092369;28;20390;-41
2021/09/20 04:39:42;;;;;;;0.90;0.10;;;;;;;;;;5092534;28;20409;-41
2021/09/20 04:42:07;;;;;;;1.85;0.20;;;;;;;;;;5092306;28;20028;-42
2021/09/20 04:44:32;;;;;;;0.20;0.20;;;;;;;;;;5092109;28;20482;-41
2021/09/20 04:46:58;;;;;;;0.10;0.10;;;;;;;;;;5092099;28;20063;-41
2021/09/20 04:49:23;;;;;;;0.25;0.20;;;;;;;;;;5092250;28;20059;-41
2021/09/20 04:51:48;;;;;;;0.10;0.10;;;;;;;;;;5092383;28;20020;-41
2021/09/20 04:54:14;;;;;;;1.10;0.20;;;;;;;;;;5091888;28;20060;-41
2021/09/20 04:56:39;;;;;;;0.00;0.00;;;;;;;;;;5073933;28;20477;-41
2021/09/20 04:59:04;;;;;;;1.60;0.20;;;;;;;;;;5091977;28;20531;-41
2021/09/20 05:01:30;;;;;;;0.10;0.10;;;;;;;;;;5092102;28;20107;-41
2021/09/20 05:03:55;;;;;;;1.95;0.20;;;;;;;;;;5091845;28;20386;-41
2021/09/20 05:06:20;;;;;;;0.13;0.10;;;;;;;;;;5093790;28;20111;-41
2021/09/20 05:08:46;;;;;;;0.45;0.28;;;;;;;;;;5095634;28;20032;-42
2021/09/20 05:11:11;;;;;;;0.00;0.00;;;;;;;;;;5095425;28;20023;-42
2021/09/20 05:13:37;;;;;;;1.38;0.10;;;;;;;;;;5095522;28;20222;-41
2021/09/20 05:16:02;;;;;;;0.17;0.17;;;;;;;;;;5095726;28;20016;-42
2021/09/20 05:18:28;;;;;;;0.10;0.10;;;;;;;;;;5094106;28;20040;-42
2021/09/20 05:20:53;;;;;;;0.10;0.10;;;;;;;;;;5095704;28;20043;-42
2021/09/20 05:23:18;;;;;;;0.10;0.10;;;;;;;;;;5095697;28;20471;-41
2021/09/20 05:25:44;;;;;;;0.10;0.10;;;;;;;;;;5095204;28;20020;-42
2021/09/20 05:28:09;;;;;;;0.25;0.20;;;;;;;;;;5095199;28;20040;-41
2021/09/20 05:30:35;;;;;;;0.10;0.10;;;;;;;;;;5095133;28;20453;-41
2021/09/20 05:33:04;;;;;;;0.17;0.10;;;;;;;;;;5095033;28;20081;-41
2021/09/20 05:35:30;;;;;;;0.10;0.10;;;;;;;;;;5095057;28;20027;-41
2021/09/20 05:37:56;;;;;;;0.17;0.17;;;;;;;;;;5095134;28;20073;-42
2021/09/20 05:40:22;;;;;;;0.10;0.10;;;;;;;;;;5095115;28;20417;-42
2021/09/20 05:42:48;;;;;;;0.08;0.08;;;;;;;;;;5095211;28;20437;-41
2021/09/20 05:45:14;;;;;;;1.10;0.10;;;;;;;;;;5094568;28;20136;-41
2021/09/20 05:47:39;;;;;;;0.13;0.10;;;;;;;;;;5094731;28;20043;-41
2021/09/20 05:50:05;;;;;;;0.00;0.00;;;;;;;;;;5094873;28;20012;-41
2021/09/20 05:52:31;;;;;;;0.00;0.00;;;;;;;;;;5094635;28;20035;-42
2021/09/20 05:54:56;;;;;;;0.10;0.10;;;;;;;;;;5094579;28;20020;-41
2021/09/20 05:57:22;;;;;;;3.95;0.20;;;;;;;;;;5094545;28;20043;-42
2021/09/20 05:59:47;;;;;;;0.00;0.00;;;;;;;;;;5094714;28;20024;-42
2021/09/20 06:02:15;;;;;;;0.10;0.10;;;;;;;;;;5094784;28;20023;-42
2021/09/20 06:04:40;;;;;;;0.10;0.10;;;;;;;;;;5094471;28;20062;-41
2021/09/20 06:07:06;;;;;;;0.10;0.10;;;;;;;;;;5094723;28;20044;-42
2021/09/20 06:09:35;;;;;;;0.15;0.13;;;;;;;;;;5094159;28;20386;-42
2021/09/20 06:12:00;;;;;;;3.40;0.15;;;;;;;;;;5094408;28;20504;-41
2021/09/20 06:14:26;;;;;;;0.05;0.05;;;;;;;;;;5094228;28;20024;-42
2021/09/20 06:16:51;;;;;;;0.13;0.13;;;;;;;;;;5094182;28;20483;-41
2021/09/20 06:19:17;;;;;;;0.00;0.00;;;;;;;;;;5094228;28;20020;-41
2021/09/20 06:21:42;;;;;;;0.17;0.10;;;;;;;;;;5094445;28;20029;-41
2021/09/20 06:24:07;;;;;;;1.45;0.10;;;;;;;;;;5094122;28;20032;-42
2021/09/20 06:26:33;;;;;;;0.30;0.25;;;;;;;;;;5094279;28;20040;-41
2021/09/20 06:28:58;;;;;;;0.45;0.30;;;;;;;;;;5094060;28;20428;-41
2021/09/20 06:31:24;;;;;;;0.20;0.10;;;;;;;;;;5093972;28;20031;-42
2021/09/20 06:33:49;;;;;;;0.10;0.10;;;;;;;;;;5093895;28;20023;-41
2021/09/20 06:36:15;;;;;;;3.00;0.10;;;;;;;;;;5093733;28;20028;-42
2021/09/20 06:38:40;;;;;;;0.05;0.05;;;;;;;;;;5093962;28;20051;-41
2021/09/20 06:41:06;;;;;;;0.10;0.10;;;;;;;;;;5093811;28;20035;-41
2021/09/20 06:43:31;;;;;;;0.10;0.10;;;;;;;;;;5093648;28;20379;-43
2021/09/20 06:45:56;;;;;;;0.00;0.00;;;;;;;;;;5093533;28;20052;-42
2021/09/20 06:48:22;;;;;;;0.00;0.00;;;;;;;;;;5093882;28;20036;-42
2021/09/20 06:50:47;;;;;;;0.10;0.10;;;;;;;;;;5093711;28;20108;-41
2021/09/20 06:53:13;;;;;;;0.10;0.10;;;;;;;;;;5093455;28;20020;-41
2021/09/20 06:55:39;;;;;;;0.20;0.10;;;;;;;;;;5093855;28;20027;-41
2021/09/20 06:58:04;;;;;;;0.10;0.10;;;;;;;;;;5093539;28;20095;-41
2021/09/20 07:00:31;;;;;;;0.10;0.10;;;;;;;;;;5093300;28;20062;-41
2021/09/20 07:02:56;;;;;;;0.10;0.10;;;;;;;;;;5093471;28;20534;-41
2021/09/20 07:05:22;;;;;;;0.00;0.00;;;;;;;;;;5093239;28;20060;-41
2021/09/20 07:07:48;;;;;;;0.10;0.10;;;;;;;;;;5093282;28;20028;-42
2021/09/20 07:10:14;;;;;;;0.00;0.00;;;;;;;;;;5093532;28;20024;-41
2021/09/20 07:12:41;;;;;;;0.10;0.10;;;;;;;;;;5093447;28;20053;-41
2021/09/20 07:15:07;;;;;;;2.20;0.20;;;;;;;;;;5093518;28;20024;-41
2021/09/20 07:17:34;;;;;;;0.05;0.05;;;;;;;;;;5093067;28;20016;-41
2021/09/20 07:19:59;;;;;;;0.13;0.10;;;;;;;;;;5093079;28;20161;-41
2021/09/20 07:22:25;;;;;;;0.10;0.10;;;;;;;;;;5093029;28;20043;-42
2021/09/20 07:24:50;;;;;;;1.40;0.10;;;;;;;;;;5093267;28;20035;-42
2021/09/20 07:27:15;;;;;;;0.10;0.10;;;;;;;;;;5093122;28;20032;-41
2021/09/20 07:29:41;;;;;;;0.00;0.00;;;;;;;;;;5092378;28;20026;-42
2021/09/20 07:32:06;;;;;;;0.10;0.10;;;;;;;;;;5092915;28;20031;-41
2021/09/20 07:34:32;;;;;;;0.10;0.10;;;;;;;;;;5092994;28;20068;-41
2021/09/20 07:36:57;;;;;;;0.15;0.10;;;;;;;;;;5092877;28;20024;-41
2021/09/20 07:39:23;;;;;;;0.60;0.10;;;;;;;;;;5093058;28;20024;-41
2021/09/20 07:41:48;;;;;;;0.10;0.10;;;;;;;;;;5092690;28;20023;-42
2021/09/20 07:44:14;;;;;;;0.20;0.13;;;;;;;;;;5092427;28;20038;-42
2021/09/20 07:46:39;;;;;;;0.10;0.10;;;;;;;;;;5092666;28;20119;-42
2021/09/20 07:49:06;;;;;;;0.10;0.10;;;;;;;;;;5092964;28;20153;-42
2021/09/20 07:51:31;;;;;;;0.00;0.00;;;;;;;;;;5092868;28;20024;-41
2021/09/20 07:53:57;;;;;;;0.10;0.10;;;;;;;;;;5092611;28;20027;-41
2021/09/20 07:56:22;;;;;;;0.10;0.10;;;;;;;;;;5092459;28;20097;-41
2021/09/20 07:58:47;;;;;;;0.00;0.00;;;;;;;;;;5092975;28;20111;-41
2021/09/20 08:01:13;;;;;;;0.40;0.20;;;;;;;;;;5092567;28;20020;-41
2021/09/20 08:03:38;;;;;;;0.10;0.10;;;;;;;;;;5092305;28;20032;-41
2021/09/20 08:06:06;;;;;;;0.52;0.20;;;;;;;;;;5092525;28;20020;-41
2021/09/20 08:08:31;;;;;;;0.43;0.10;;;;;;;;;;5091150;28;20368;-42
2021/09/20 08:10:56;;;;;;;0.10;0.10;;;;;;;;;;5092534;28;20015;-42
2021/09/20 08:13:22;;;;;;;0.10;0.10;;;;;;;;;;5092383;28;20078;-41
2021/09/20 08:15:48;;;;;;;0.10;0.10;;;;;;;;;;5092397;28;20027;-42
2021/09/20 08:18:14;;;;;;;0.10;0.10;;;;;;;;;;5092297;28;20032;-42
2021/09/20 08:20:40;;;;;;;0.00;0.00;;;;;;;;;;5092464;28;20020;-42
2021/09/20 08:23:06;;;;;;;0.00;0.00;;;;;;;;;;5092677;28;20028;-42
2021/09/20 08:25:31;;;;;;;0.17;0.00;;;;;;;;;;5092528;28;20125;-42
2021/09/20 08:27:57;;;;;;;0.22;0.10;;;;;;;;;;5092512;28;20044;-41
2021/09/20 08:30:23;;;;;;;0.25;0.15;;;;;;;;;;5092152;28;20520;-41
2021/09/20 08:32:49;;;;;;;1.85;0.98;;;;;;;;;;5092266;28;20494;-41
2021/09/20 08:35:14;;;;;;;0.22;0.10;;;;;;;;;;5092124;28;20015;-42
2021/09/20 08:37:40;;;;;;;0.10;0.10;;;;;;;;;;5090986;28;20501;-42
2021/09/20 08:40:06;;;;;;;0.10;0.10;;;;;;;;;;5094207;28;20008;-41
2021/09/20 08:42:34;;;;;;;0.15;0.10;;;;;;;;;;5096366;28;20032;-42
2021/09/20 08:44:59;;;;;;;3.30;0.45;;;;;;;;;;5095903;28;20040;-41
2021/09/20 08:47:24;;;;;;;0.10;0.10;;;;;;;;;;5096164;28;20540;-42
2021/09/20 08:49:51;;;;;;;0.17;0.10;;;;;;;;;;5096313;28;20036;-42
2021/09/20 08:52:17;;;;;;;4.00;0.60;;;;;;;;;;5095873;28;20073;-41
2021/09/20 08:54:43;;;;;;;0.10;0.10;;;;;;;;;;5095865;28;20591;-42
2021/09/20 08:57:09;;;;;;;0.10;0.10;;;;;;;;;;5095936;28;20056;-41
2021/09/20 08:59:34;;;;;;;0.28;0.20;;;;;;;;;;5095707;28;20426;-41
2021/09/20 09:02:01;;;;;;;0.05;0.05;;;;;;;;;;5095768;28;20186;-41
2021/09/20 09:04:31;;;;;;;0.13;0.13;;;;;;;;;;5095615;28;20016;-41
2021/09/20 09:06:58;;;;;;;0.10;0.10;;;;;;;;;;5095883;28;20036;-41
2021/09/20 09:09:30;;;;;;;0.20;0.20;;;;;;;;;;5095872;28;20382;-41
2021/09/20 09:12:14;;;;;;;0.20;0.20;;;;;;;;;;5095684;28;20052;-41
2021/09/20 09:14:44;;;;;;;0.20;0.10;;;;;;;;;;5094101;28;20027;-41
2021/09/20 09:17:11;;;;;;;0.05;0.05;;;;;;;;;;5095717;28;20049;-41
2021/09/20 09:19:44;;;;;;;0.10;0.10;;;;;;;;;;5095652;28;20059;-41
2021/09/20 09:22:10;;;;;;;0.03;0.03;;;;;;;;;;5095394;28;20164;-41
2021/09/20 09:24:35;;;;;;;0.25;0.10;;;;;;;;;;5095574;28;20053;-41
2021/09/20 09:27:02;;;;;;;0.00;0.00;;;;;;;;;;5095225;28;20043;-41
2021/09/20 09:29:28;;;;;;;0.00;0.00;;;;;;;;;;5095285;28;20024;-41
2021/09/20 09:31:55;;;;;;;0.10;0.10;;;;;;;;;;5095447;28;20024;-41
2021/09/20 09:34:25;;;;;;;0.10;0.10;;;;;;;;;;5095010;28;20612;-41
2021/09/20 09:36:50;;;;;;;0.17;0.17;;;;;;;;;;5095377;28;20032;-41
2021/09/20 09:39:26;;;;;;;0.10;0.10;;;;;;;;;;5095051;28;20012;-41
2021/09/20 09:41:51;;;;;;;0.10;0.10;;;;;;;;;;5095236;28;20028;-41
2021/09/20 09:44:18;;;;;;;0.00;0.00;;;;;;;;;;5095150;28;20362;-41
2021/09/20 09:46:45;;;;;;;0.10;0.10;;;;;;;;;;5094764;28;20072;-41
2021/09/20 09:49:14;;;;;;;0.10;0.10;;;;;;;;;;5095053;28;20122;-42
2021/09/20 09:51:58;;;;;;;0.00;0.00;;;;;;;;;;5094083;28;20106;-41
2021/09/20 09:54:41;;;;;;;0.47;0.10;;;;;;;;;;5094596;28;20067;-41
2021/09/20 09:57:11;;;;;;;0.20;0.10;;;;;;;;;;5094745;28;20039;-41
2021/09/20 09:59:38;;;;;;;0.52;0.22;;;;;;;;;;5094654;28;20444;-42
2021/09/20 10:02:16;;;;;;;0.30;0.22;;;;;;;;;;5094716;28;20028;-41
2021/09/20 10:04:50;;;;;;;0.10;0.10;;;;;;;;;;5094566;28;20039;-41
2021/09/20 10:07:20;;;;;;;0.68;0.15;;;;;;;;;;5094664;28;20052;-41
2021/09/20 10:09:46;;;;;;;0.10;0.10;;;;;;;;;;5093172;28;20089;-42
2021/09/20 10:12:11;;;;;;;0.20;0.20;;;;;;;;;;5094469;28;20023;-41
2021/09/20 10:14:38;;;;;;;0.10;0.10;;;;;;;;;;5094234;28;20025;-41
2021/09/20 10:17:04;;;;;;;0.10;0.10;;;;;;;;;;5094569;28;20027;-41
2021/09/20 10:19:30;;;;;;;0.10;0.10;;;;;;;;;;5094257;28;20031;-42
2021/09/20 10:21:55;;;;;;;0.10;0.10;;;;;;;;;;5094505;28;20020;-41
2021/09/20 10:24:21;;;;;;;0.13;0.10;;;;;;;;;;5093996;28;20035;-41
2021/09/20 10:26:46;;;;;;;0.10;0.10;;;;;;;;;;5094375;28;20046;-41
2021/09/20 10:29:16;;;;;;;0.90;0.20;;;;;;;;;;5094402;28;20032;-41
2021/09/20 10:31:42;;;;;;;0.25;0.20;;;;;;;;;;5094260;28;20048;-41
2021/09/20 10:34:20;;;;;;;0.30;0.10;;;;;;;;;;5093901;28;20036;-41
2021/09/20 10:36:48;;;;;;;0.40;0.20;;;;;;;;;;5093967;28;20038;-41
2021/09/20 10:39:14;;;;;;;0.10;0.10;;;;;;;;;;5093873;28;20048;-41
2021/09/20 10:41:39;;;;;;;0.10;0.10;;;;;;;;;;5093771;28;20438;-42
2021/09/20 10:44:04;;;;;;;0.15;0.15;;;;;;;;;;5094107;28;20099;-41
2021/09/20 10:46:32;;;;;;;0.00;0.00;;;;;;;;;;5093540;28;20587;-41
2021/09/20 10:49:01;;;;;;;0.20;0.17;;;;;;;;;;5092638;28;20028;-42
2021/09/20 10:51:30;;;;;;;0.10;0.10;;;;;;;;;;5093551;28;20085;-42
2021/09/20 10:54:16;;;;;;;0.10;0.10;;;;;;;;;;5093575;28;20382;-42
2021/09/20 10:56:42;;;;;;;0.32;0.10;;;;;;;;;;5093541;28;20170;-41
2021/09/20 10:59:08;;;;;;;0.17;0.17;;;;;;;;;;5093521;28;20074;-41
2021/09/20 11:01:34;;;;;;;0.10;0.10;;;;;;;;;;5092180;28;20030;-41
2021/09/20 11:04:01;;;;;;;0.00;0.00;;;;;;;;;;5092487;28;20020;-42
2021/09/20 11:06:27;;;;;;;0.10;0.10;;;;;;;;;;5093408;28;20032;-41
2021/09/20 11:08:55;;;;;;;0.10;0.10;;;;;;;;;;5093451;28;20068;-41
2021/09/20 11:11:42;;;;;;;0.17;0.10;;;;;;;;;;5093248;28;20024;-41
2021/09/20 11:14:08;;;;;;;0.10;0.10;;;;;;;;;;5092164;28;20486;-41
2021/09/20 11:16:46;;;;;;;0.17;0.17;;;;;;;;;;5093099;28;20481;-41
2021/09/20 11:19:24;;;;;;;2.03;0.25;;;;;;;;;;5093176;28;20035;-41
2021/09/20 11:22:16;;;;;;;0.25;0.20;;;;;;;;;;5092129;28;20375;-41
2021/09/20 11:25:03;;;;;;;0.38;0.20;;;;;;;;;;5089877;28;20039;-41
2021/09/20 11:27:30;;;;;;;0.25;0.20;;;;;;;;;;5092923;28;20075;-41
2021/09/20 11:29:58;;;;;;;0.10;0.10;;;;;;;;;;5092873;28;20044;-41
2021/09/20 11:32:23;;;;;;;0.10;0.10;;;;;;;;;;5092892;28;20063;-41
2021/09/20 11:34:52;;;;;;;0.13;0.10;;;;;;;;;;5093172;28;20052;-42
2021/09/20 11:37:19;;;;;;;0.20;0.20;;;;;;;;;;5092837;28;20089;-41
2021/09/20 11:39:57;;;;;;;0.98;0.15;;;;;;;;;;5092840;28;20023;-41
2021/09/20 11:42:23;;;;;;;0.10;0.10;;;;;;;;;;5092624;28;20497;-41
2021/09/20 11:44:53;;;;;;;0.15;0.15;;;;;;;;;;5092621;28;20040;-41
2021/09/20 11:47:20;;;;;;;0.15;0.15;;;;;;;;;;5092549;28;20519;-41
2021/09/20 11:49:46;;;;;;;0.25;0.10;;;;;;;;;;5092708;28;20075;-41
2021/09/20 11:52:13;;;;;;;0.15;0.15;;;;;;;;;;5093017;28;20051;-41
2021/09/20 11:54:39;;;;;;;0.00;0.00;;;;;;;;;;5092578;28;20080;-41
2021/09/20 11:57:10;;;;;;;0.13;0.13;;;;;;;;;;5092589;28;20490;-42
2021/09/20 11:59:36;;;;;;;0.15;0.15;;;;;;;;;;5092780;28;20063;-41
2021/09/20 12:02:01;;;;;;;0.32;0.20;;;;;;;;;;5092577;28;20521;-42
2021/09/20 12:04:46;;;;;;;0.20;0.20;;;;;;;;;;5092616;28;20155;-41
2021/09/20 12:07:24;;;;;;;0.22;0.20;;;;;;;;;;5092431;28;20032;-41
2021/09/20 12:09:50;;;;;;;0.90;0.40;;;;;;;;;;5092475;28;20021;-42
2021/09/20 12:12:15;;;;;;;0.20;0.20;;;;;;;;;;5092507;28;20027;-41
2021/09/20 12:14:52;;;;;;;0.60;0.20;;;;;;;;;;5093403;28;20028;-42
2021/09/20 12:17:17;;;;;;;0.10;0.10;;;;;;;;;;5096604;28;20483;-41
2021/09/20 12:19:50;;;;;;;0.40;0.22;;;;;;;;;;5096498;28;20016;-42
2021/09/20 12:22:15;;;;;;;1.45;0.30;;;;;;;;;;5096632;28;20031;-41
2021/09/20 12:24:41;;;;;;;0.52;0.30;;;;;;;;;;5096682;28;20020;-41
2021/09/20 12:27:06;;;;;;;0.20;0.20;;;;;;;;;;5096586;28;20051;-42
2021/09/20 12:29:32;;;;;;;2.30;0.20;;;;;;;;;;5096317;28;20547;-41
2021/09/20 12:31:58;;;;;;;0.25;0.20;;;;;;;;;;5095040;28;20048;-41
2021/09/20 12:34:31;;;;;;;0.20;0.10;;;;;;;;;;5096194;28;20012;-41
2021/09/20 12:36:58;;;;;;;0.20;0.20;;;;;;;;;;5096277;28;20399;-41
2021/09/20 12:39:25;;;;;;;0.75;0.32;;;;;;;;;;5096392;28;20033;-43
2021/09/20 12:41:56;;;;;;;0.40;0.30;;;;;;;;;;5096461;28;20385;-42
2021/09/20 12:44:38;;;;;;;0.22;0.22;;;;;;;;;;5096014;28;20024;-42
2021/09/20 12:47:08;;;;;;;0.52;0.38;;;;;;;;;;5096093;28;20032;-41
2021/09/20 12:49:34;;;;;;;3.60;0.35;;;;;;;;;;5096573;28;20089;-41
2021/09/20 12:51:59;;;;;;;0.93;0.32;;;;;;;;;;5096337;28;20110;-41
2021/09/20 12:54:29;;;;;;;0.40;0.30;;;;;;;;;;5095680;28;20063;-41
2021/09/20 12:57:14;;;;;;;0.30;0.30;;;;;;;;;;5095947;28;20382;-41
2021/09/20 12:59:39;;;;;;;0.63;0.43;;;;;;;;;;5095764;28;20423;-41
2021/09/20 13:02:12;;;;;;;0.30;0.30;;;;;;;;;;5095841;28;20016;-41
2021/09/20 13:04:39;;;;;;;0.32;0.32;;;;;;;;;;5095661;28;20187;-42
2021/09/20 13:07:24;;;;;;;0.45;0.30;;;;;;;;;;5094722;28;20111;-41
2021/09/20 13:09:55;;;;;;;0.40;0.30;;;;;;;;;;5095215;28;20043;-42
2021/09/20 13:12:21;;;;;;;0.35;0.30;;;;;;;;;;5095827;28;20035;-41
2021/09/20 13:14:46;;;;;;;0.22;0.22;;;;;;;;;;5094268;28;20344;-41
2021/09/20 13:17:11;;;;;;;1.55;0.35;;;;;;;;;;5095813;28;20112;-42
2021/09/20 13:19:37;;;;;;;0.75;0.50;;;;;;;;;;5095408;28;20481;-42
2021/09/20 13:22:06;;;;;;;0.38;0.38;;;;;;;;;;5095365;28;20031;-41
2021/09/20 13:24:35;;;;;;;0.20;0.20;;;;;;;;;;5095511;28;20016;-41
2021/09/20 13:27:01;;;;;;;0.80;0.28;;;;;;;;;;5094139;28;20029;-41
2021/09/20 13:29:26;;;;;;;0.52;0.30;;;;;;;;;;5094094;28;20023;-41
2021/09/20 13:31:52;;;;;;;0.40;0.40;;;;;;;;;;5095192;28;20028;-41
2021/09/20 13:34:18;;;;;;;0.40;0.20;;;;;;;;;;5095733;28;20051;-41
2021/09/20 13:36:44;;;;;;;0.40;0.40;;;;;;;;;;5095166;28;20101;-41
2021/09/20 13:39:09;;;;;;;0.40;0.40;;;;;;;;;;5095113;28;20043;-42
2021/09/20 13:41:35;;;;;;;0.45;0.40;;;;;;;;;;5094959;28;20032;-42
2021/09/20 13:44:00;;;;;;;0.20;0.20;;;;;;;;;;5094930;28;20023;-41
2021/09/20 13:46:26;;;;;;;0.75;0.60;;;;;;;;;;5094561;28;20058;-41
2021/09/20 13:48:52;;;;;;;0.20;0.20;;;;;;;;;;5095250;28;20043;-42
2021/09/20 13:51:18;;;;;;;0.43;0.20;;;;;;;;;;5094752;28;20023;-41
2021/09/20 13:53:44;;;;;;;0.38;0.30;;;;;;;;;;5094980;28;20095;-41
2021/09/20 13:56:10;;;;;;;0.30;0.30;;;;;;;;;;5095145;28;20016;-42
2021/09/20 13:58:35;;;;;;;0.40;0.30;;;;;;;;;;5094564;28;20444;-41
2021/09/20 14:01:01;;;;;;;0.40;0.40;;;;;;;;;;5095039;28;20024;-41
2021/09/20 14:03:27;;;;;;;0.22;0.20;;;;;;;;;;5094783;28;20087;-41
2021/09/20 14:05:53;;;;;;;0.32;0.30;;;;;;;;;;5094489;28;20032;-41
2021/09/20 14:08:19;;;;;;;0.30;0.30;;;;;;;;;;5094799;28;20151;-42
2021/09/20 14:10:45;;;;;;;0.50;0.30;;;;;;;;;;5094501;28;20039;-41
2021/09/20 14:13:11;;;;;;;0.50;0.43;;;;;;;;;;5094664;28;20016;-41
2021/09/20 14:15:37;;;;;;;0.55;0.35;;;;;;;;;;5094612;28;20382;-41
2021/09/20 14:18:03;;;;;;;0.73;0.40;;;;;;;;;;5094386;28;20016;-41
2021/09/20 14:20:29;;;;;;;0.52;0.52;;;;;;;;;;5094168;28;20028;-41
2021/09/20 14:22:58;;;;;;;0.60;0.38;;;;;;;;;;5094513;28;20020;-41
2021/09/20 14:25:25;;;;;;;0.35;0.35;;;;;;;;;;5094178;28;20393;-41
2021/09/20 14:27:50;;;;;;;0.30;0.22;;;;;;;;;;5094049;28;20032;-42
2021/09/20 14:30:17;;;;;;;0.50;0.47;;;;;;;;;;5094124;28;20031;-41
2021/09/20 14:32:42;;;;;;;0.40;0.40;;;;;;;;;;5094304;28;20024;-41
2021/09/20 14:35:08;;;;;;;0.30;0.30;;;;;;;;;;5093911;28;20120;-42
2021/09/20 14:37:36;;;;;;;0.30;0.30;;;;;;;;;;5093997;28;20016;-41
2021/09/20 14:40:06;;;;;;;3.20;0.65;;;;;;;;;;5094114;28;20024;-42